Time;durP1;ratioP1;P1;durP2;ratioP2;P2;SDS_P1;SDS_P2;PMS_P1;PMS_P2;Temp;Humidity;BMP_temperature;BMP_pressure;BME280_temperature;BME280_humidity;BME280_pressure;Samples;Min_cycle;Max_cycle;Signal;HPM_P1;HPM_P2
2021/04/14 00:00:42;;;;;;;101.28;56.67;;;;;;;10.95;77.89;99817.47;5048738;28;20025;-22
2021/04/14 00:03:12;;;;;;;95.85;55.03;;;;;;;10.79;77.43;99794.09;5048670;28;20104;-21
2021/04/14 00:05:38;;;;;;;100.45;54.75;;;;;;;10.52;78.07;99806.94;5048972;28;20021;-21
2021/04/14 00:08:04;;;;;;;102.70;55.35;;;;;;;10.38;78.27;99828.47;5048542;28;20017;-22
2021/04/14 00:10:31;;;;;;;103.63;54.50;;;;;;;10.12;78.55;99828.72;5048660;28;20051;-22
2021/04/14 00:12:57;;;;;;;108.68;56.50;;;;;;;9.94;79.84;99827.66;5048203;28;20412;-22
2021/04/14 00:15:33;;;;;;;112.18;57.63;;;;;;;10.06;80.15;99830.41;5048500;28;20081;-22
2021/04/14 00:17:59;;;;;;;110.20;56.92;;;;;;;10.42;79.10;99824.31;5048809;28;20036;-22
2021/04/14 00:20:24;;;;;;;124.53;59.92;;;;;;;11.06;76.73;99830.00;5048060;28;20029;-22
2021/04/14 00:22:50;;;;;;;112.80;57.83;;;;;;;11.12;76.63;99836.28;5048275;28;20106;-22
2021/04/14 00:25:25;;;;;;;112.90;57.58;;;;;;;11.12;76.66;99822.94;5048466;28;20033;-21
2021/04/14 00:27:51;;;;;;;107.10;56.63;;;;;;;11.53;74.92;99829.28;5048156;28;20108;-22
2021/04/14 00:30:16;;;;;;;112.90;55.50;;;;;;;11.45;75.05;99829.63;5046914;28;20614;-22
2021/04/14 00:32:42;;;;;;;107.95;53.97;;;;;;;11.35;74.98;99813.38;5047995;28;20108;-22
2021/04/14 00:35:08;;;;;;;104.50;52.35;;;;;;;11.54;74.88;99806.88;5030415;28;20028;-22
2021/04/14 00:37:34;;;;;;;107.40;54.53;;;;;;;11.90;73.25;99822.94;5047897;28;20123;-22
2021/04/14 00:39:59;;;;;;;104.65;51.47;;;;;;;11.78;73.74;99820.25;5029994;28;20112;-22
2021/04/14 00:42:25;;;;;;;103.18;54.03;;;;;;;11.80;73.71;99818.97;5047715;28;20113;-21
2021/04/14 00:44:50;;;;;;;99.95;52.38;;;;;;;11.71;72.45;99814.19;5047861;28;20413;-22
2021/04/14 00:47:17;;;;;;;99.07;51.70;;;;;;;11.49;74.18;99833.47;5047931;28;20037;-22
2021/04/14 00:49:46;;;;;;;102.53;55.60;;;;;;;11.11;75.89;99812.50;5047600;28;20057;-23
2021/04/14 00:52:12;;;;;;;104.60;52.30;;;;;;;11.25;75.38;99812.06;5030151;28;20028;-20
2021/04/14 00:54:38;;;;;;;99.22;49.33;;;;;;;11.51;74.83;99815.34;5047819;28;20025;-22
2021/04/14 00:57:03;;;;;;;96.07;49.30;;;;;;;11.60;74.14;99803.28;5047604;28;20033;-22
2021/04/14 00:59:29;;;;;;;99.32;50.08;;;;;;;11.51;75.33;99799.34;5047874;28;20036;-22
2021/04/14 01:01:56;;;;;;;99.30;50.70;;;;;;;11.66;75.15;99813.03;5047567;28;20025;-22
2021/04/14 01:04:22;;;;;;;96.17;49.43;;;;;;;11.52;75.24;99795.59;5047312;28;20036;-21
2021/04/14 01:06:48;;;;;;;97.38;50.22;;;;;;;11.78;74.76;99817.56;5047520;28;20393;-21
2021/04/14 01:09:13;;;;;;;94.68;47.22;;;;;;;11.63;74.93;99807.34;5047573;28;20114;-21
2021/04/14 01:11:39;;;;;;;100.07;47.85;;;;;;;11.77;74.56;99810.59;5047466;28;20135;-22
2021/04/14 01:14:05;;;;;;;99.18;46.72;;;;;;;11.72;74.32;99792.59;5013389;28;20033;-22
2021/04/14 01:16:31;;;;;;;96.63;45.72;;;;;;;11.96;74.16;99790.75;5047225;28;20035;-21
2021/04/14 01:18:56;;;;;;;77.75;41.28;;;;;;;11.95;73.62;99783.81;5047369;28;20037;-22
2021/04/14 01:21:23;;;;;;;76.97;39.45;;;;;;;11.96;74.62;99784.59;5047360;28;20080;-22
2021/04/14 01:23:48;;;;;;;66.88;36.97;;;;;;;12.22;73.28;99783.28;5047188;28;20062;-22
2021/04/14 01:26:14;;;;;;;68.53;35.13;;;;;;;11.90;73.69;99770.31;5012800;28;20025;-21
2021/04/14 01:28:41;;;;;;;69.35;34.55;;;;;;;12.14;73.14;99786.31;5047086;28;20025;-22
2021/04/14 01:31:08;;;;;;;65.55;33.20;;;;;;;12.43;72.15;99768.44;5046941;28;20416;-22
2021/04/14 01:33:34;;;;;;;59.17;31.08;;;;;;;12.57;71.29;99780.47;5029492;28;20032;-21
2021/04/14 01:36:00;;;;;;;66.78;33.63;;;;;;;12.56;71.04;99791.41;5029346;28;20021;-22
2021/04/14 01:38:26;;;;;;;58.63;30.90;;;;;;;12.18;72.49;99782.13;5047155;28;20029;-22
2021/04/14 01:40:52;;;;;;;67.18;34.15;;;;;;;12.16;72.40;99781.56;5047128;28;20074;-21
2021/04/14 01:43:17;;;;;;;70.97;34.83;;;;;;;12.14;73.39;99791.66;5046795;28;20130;-22
2021/04/14 01:45:45;;;;;;;64.55;34.30;;;;;;;12.32;72.42;99786.16;5047131;28;20036;-22
2021/04/14 01:48:10;;;;;;;64.15;33.08;;;;;;;12.36;72.36;99795.31;5029468;28;20046;-22
2021/04/14 01:50:36;;;;;;;69.07;36.63;;;;;;;12.19;72.67;99786.41;5046897;28;20482;-22
2021/04/14 01:53:02;;;;;;;74.38;36.65;;;;;;;12.32;72.43;99785.31;5046594;28;20087;-22
2021/04/14 01:55:28;;;;;;;73.00;39.45;;;;;;;12.16;72.32;99779.69;5046759;28;20110;-22
2021/04/14 01:57:54;;;;;;;71.47;39.35;;;;;;;12.00;72.52;99770.53;5029414;28;20037;-21
2021/04/14 02:00:26;;;;;;;85.80;43.85;;;;;;;12.33;71.93;99778.94;5046737;28;20037;-21
2021/04/14 02:02:52;;;;;;;82.72;43.22;;;;;;;12.29;71.85;99773.25;5046826;28;20064;-22
2021/04/14 02:05:18;;;;;;;85.45;43.70;;;;;;;11.83;73.60;99777.63;5028950;28;20159;-22
2021/04/14 02:07:43;;;;;;;79.60;41.08;;;;;;;12.20;72.40;99767.47;5046646;28;20025;-22
2021/04/14 02:10:09;;;;;;;77.88;41.42;;;;;;;11.47;75.10;99744.75;5028962;28;20531;-20
2021/04/14 02:12:35;;;;;;;78.05;42.58;;;;;;;11.42;75.82;99736.63;5029162;28;20481;-21
2021/04/14 02:15:02;;;;;;;75.07;42.40;;;;;;;11.39;76.56;99734.44;5047029;28;20044;-23
2021/04/14 02:17:29;;;;;;;79.35;42.13;;;;;;;11.48;75.62;99727.69;5046944;28;20032;-22
2021/04/14 02:19:54;;;;;;;77.32;40.65;;;;;;;11.36;75.91;99734.88;5028799;28;20094;-22
2021/04/14 02:22:20;;;;;;;79.03;41.90;;;;;;;11.63;75.53;99727.22;5046250;28;20037;-22
2021/04/14 02:24:45;;;;;;;83.05;44.03;;;;;;;11.98;73.63;99735.22;5046907;28;20041;-22
2021/04/14 02:27:11;;;;;;;82.70;43.38;;;;;;;11.67;74.66;99739.06;5028595;28;20036;-22
2021/04/14 02:29:36;;;;;;;83.90;43.30;;;;;;;11.57;74.93;99723.63;5046646;28;20051;-22
2021/04/14 02:32:03;;;;;;;82.82;44.17;;;;;;;11.43;75.65;99727.59;5046473;28;20516;-22
2021/04/14 02:34:28;;;;;;;87.15;44.53;;;;;;;11.16;76.21;99725.38;5028641;28;20537;-22
2021/04/14 02:36:54;;;;;;;84.53;45.80;;;;;;;11.17;76.69;99740.31;5046294;28;20036;-22
2021/04/14 02:39:19;;;;;;;79.72;44.90;;;;;;;11.09;77.22;99738.00;5046446;28;20088;-22
2021/04/14 02:41:46;;;;;;;86.68;46.50;;;;;;;10.94;77.98;99719.78;5046638;28;20064;-21
2021/04/14 02:44:11;;;;;;;86.10;45.40;;;;;;;11.56;75.54;99738.00;5029025;28;20029;-21
2021/04/14 02:46:37;;;;;;;79.82;43.50;;;;;;;11.55;75.44;99731.06;5046422;28;20972;-22
2021/04/14 02:49:02;;;;;;;86.47;43.03;;;;;;;11.53;75.89;99732.34;5046177;28;20530;-22
2021/04/14 02:51:28;;;;;;;86.15;44.30;;;;;;;11.78;74.51;99729.41;5046095;28;20056;-22
2021/04/14 02:53:53;;;;;;;81.68;42.53;;;;;;;11.96;73.59;99737.31;5049038;28;20036;-20
2021/04/14 02:56:19;;;;;;;86.60;42.30;;;;;;;12.06;73.37;99731.38;5049770;28;20025;-22
2021/04/14 02:58:47;;;;;;;85.22;40.63;;;;;;;11.70;74.50;99733.25;5049991;28;20021;-22
2021/04/14 03:01:12;;;;;;;85.90;40.72;;;;;;;12.17;73.56;99735.03;5050181;28;20033;-22
2021/04/14 03:03:38;;;;;;;83.35;40.58;;;;;;;12.27;72.25;99721.88;5015561;28;20043;-22
2021/04/14 03:06:04;;;;;;;84.28;37.90;;;;;;;12.30;72.63;99734.78;5032194;28;20029;-22
2021/04/14 03:08:29;;;;;;;98.68;42.03;;;;;;;12.33;73.26;99731.63;5049646;28;20029;-22
2021/04/14 03:10:55;;;;;;;84.15;39.10;;;;;;;12.54;72.03;99726.66;5049554;28;20037;-22
2021/04/14 03:13:20;;;;;;;74.32;35.30;;;;;;;12.52;71.97;99731.41;5049832;28;20037;-22
2021/04/14 03:15:46;;;;;;;83.03;36.42;;;;;;;12.35;72.21;99708.13;5049584;28;20147;-22
2021/04/14 03:18:14;;;;;;;76.10;35.22;;;;;;;12.37;71.77;99705.22;5049480;28;20049;-22
2021/04/14 03:20:39;;;;;;;86.80;37.05;;;;;;;12.57;71.58;99718.16;5049345;28;20036;-22
2021/04/14 03:23:05;;;;;;;75.10;34.75;;;;;;;12.27;72.12;99711.97;5031692;28;20463;-22
2021/04/14 03:25:31;;;;;;;77.78;34.50;;;;;;;12.15;72.12;99700.53;5031481;28;20459;-21
2021/04/14 03:27:58;;;;;;;71.72;35.10;;;;;;;11.88;73.78;99721.59;5049517;28;20400;-24
2021/04/14 03:30:24;;;;;;;70.88;34.67;;;;;;;11.78;74.09;99740.09;5049282;28;20065;-21
2021/04/14 03:32:50;;;;;;;80.43;37.45;;;;;;;12.23;72.25;99731.41;5031406;28;20039;-22
2021/04/14 03:35:16;;;;;;;74.63;36.35;;;;;;;12.20;72.46;99742.59;5031490;28;20029;-22
2021/04/14 03:37:41;;;;;;;76.68;35.97;;;;;;;12.44;71.12;99748.66;5048907;28;20163;-21
2021/04/14 03:40:08;;;;;;;77.45;36.08;;;;;;;11.79;73.10;99731.03;5048995;28;20540;-21
2021/04/14 03:42:34;;;;;;;69.18;33.70;;;;;;;11.37;75.25;99733.84;5048652;28;20531;-22
2021/04/14 03:45:01;;;;;;;71.30;32.97;;;;;;;11.59;74.95;99752.78;5048320;28;20036;-21
2021/04/14 03:47:27;;;;;;;72.40;34.15;;;;;;;11.84;73.43;99760.53;5030880;28;20057;-21
2021/04/14 03:49:52;;;;;;;65.82;33.05;;;;;;;10.88;76.63;99774.03;5048959;28;20136;-22
2021/04/14 03:52:19;;;;;;;74.55;37.88;;;;;;;10.65;78.30;99788.13;5048637;28;20029;-22
2021/04/14 03:54:44;;;;;;;77.82;38.38;;;;;;;10.56;79.02;99797.47;5049151;28;20048;-22
2021/04/14 03:57:10;;;;;;;100.03;45.17;;;;;;;11.21;76.69;99800.22;5048693;28;20401;-22
2021/04/14 03:59:35;;;;;;;79.68;37.95;;;;;;;10.69;78.22;99799.97;5048658;28;20505;-22
2021/04/14 04:02:01;;;;;;;80.63;40.95;;;;;;;10.53;79.18;99795.25;5048647;28;20102;-23
2021/04/14 04:04:26;;;;;;;79.70;39.53;;;;;;;10.54;79.33;99802.19;5047046;28;20084;-22
2021/04/14 04:06:52;;;;;;;85.85;38.88;;;;;;;10.33;79.52;99809.63;5048481;28;20029;-21
2021/04/14 04:09:18;;;;;;;86.22;36.47;;;;;;;10.14;80.66;99794.69;5048463;28;20064;-22
2021/04/14 04:11:43;;;;;;;85.07;37.85;;;;;;;10.01;81.66;99820.44;5048563;28;20020;-22
2021/04/14 04:14:09;;;;;;;93.75;40.13;;;;;;;10.00;81.79;99816.13;5048459;28;20389;-21
2021/04/14 04:16:34;;;;;;;98.93;39.00;;;;;;;10.01;81.72;99807.09;5048395;28;20087;-22
2021/04/14 04:19:00;;;;;;;100.30;41.40;;;;;;;10.29;80.66;99813.75;5048328;28;20037;-22
2021/04/14 04:21:25;;;;;;;105.75;44.10;;;;;;;9.73;83.10;99812.91;5048414;28;20036;-22
2021/04/14 04:23:51;;;;;;;103.55;41.97;;;;;;;9.64;83.12;99801.75;5048473;28;20111;-21
2021/04/14 04:26:17;;;;;;;95.63;42.20;;;;;;;10.04;81.98;99805.84;5048124;28;20508;-21
2021/04/14 04:28:42;;;;;;;102.43;43.63;;;;;;;10.56;79.66;99792.13;5048509;28;20370;-22
2021/04/14 04:31:08;;;;;;;107.70;44.25;;;;;;;10.91;78.03;99804.78;5048053;28;20025;-21
2021/04/14 04:33:34;;;;;;;111.07;47.42;;;;;;;10.85;78.07;99799.31;5048108;28;20029;-22
2021/04/14 04:36:00;;;;;;;107.40;46.10;;;;;;;10.96;78.02;99796.91;5047906;28;20064;-22
2021/04/14 04:38:25;;;;;;;117.07;49.85;;;;;;;10.77;78.19;99799.66;5047664;28;20039;-22
2021/04/14 04:40:51;;;;;;;102.07;44.53;;;;;;;10.61;78.81;99793.09;5047816;28;20029;-22
2021/04/14 04:43:17;;;;;;;109.28;45.80;;;;;;;10.44;79.78;99802.72;5047994;28;20382;-22
2021/04/14 04:45:42;;;;;;;102.38;43.47;;;;;;;10.32;80.36;99792.03;5047794;28;20025;-21
2021/04/14 04:48:08;;;;;;;100.60;42.38;;;;;;;10.16;80.96;99792.59;5047571;28;20072;-22
2021/04/14 04:50:36;;;;;;;94.55;40.58;;;;;;;10.07;80.87;99800.06;5047656;28;20044;-21
2021/04/14 04:53:06;;;;;;;105.57;39.40;;;;;;;10.10;81.50;99820.94;5047490;28;20036;-22
2021/04/14 04:55:32;;;;;;;88.00;36.00;;;;;;;9.65;81.94;99790.03;5047917;28;20029;-22
2021/04/14 04:57:57;;;;;;;73.50;31.75;;;;;;;9.72;81.82;99803.28;5047651;28;20032;-21
2021/04/14 05:00:23;;;;;;;89.35;36.03;;;;;;;10.02;81.51;99826.56;5047311;28;20496;-21
2021/04/14 05:02:48;;;;;;;68.13;32.85;;;;;;;10.11;79.94;99821.75;5047770;28;20025;-21
2021/04/14 05:05:16;;;;;;;64.78;31.00;;;;;;;9.86;81.13;99830.59;5047606;28;20064;-22
2021/04/14 05:07:41;;;;;;;51.47;25.17;;;;;;;9.72;80.51;99829.09;5029958;28;20433;-22
2021/04/14 05:10:07;;;;;;;39.53;23.23;;;;;;;9.54;80.26;99806.75;5047417;28;20899;-21
2021/04/14 05:12:33;;;;;;;37.47;19.70;;;;;;;9.44;80.47;99803.75;5047408;28;20035;-22
2021/04/14 05:14:59;;;;;;;34.28;19.55;;;;;;;9.61;79.85;99825.31;5046915;28;20033;-22
2021/04/14 05:17:25;;;;;;;31.58;17.75;;;;;;;9.86;78.18;99798.66;5047216;28;20148;-22
2021/04/14 05:19:50;;;;;;;24.80;14.70;;;;;;;9.67;78.43;99816.47;5047351;28;20033;-21
2021/04/14 05:22:16;;;;;;;21.58;13.85;;;;;;;9.88;77.60;99817.88;5047416;28;20140;-22
2021/04/14 05:24:41;;;;;;;18.27;11.13;;;;;;;9.93;77.19;99826.03;5029659;28;20112;-22
2021/04/14 05:27:08;;;;;;;14.65;8.18;;;;;;;10.06;76.08;99820.56;5047289;28;20041;-22
2021/04/14 05:29:33;;;;;;;13.40;8.68;;;;;;;9.95;76.69;99834.63;5029431;28;20032;-22
2021/04/14 05:31:59;;;;;;;11.43;7.50;;;;;;;10.05;75.54;99818.94;5047396;28;20032;-22
2021/04/14 05:34:24;;;;;;;12.90;7.82;;;;;;;10.26;76.10;99816.88;5029078;28;20029;-22
2021/04/14 05:36:52;;;;;;;13.25;9.43;;;;;;;10.48;75.22;99800.44;5046885;28;20036;-22
2021/04/14 05:39:18;;;;;;;11.20;8.15;;;;;;;10.89;74.83;99817.53;5047082;28;20485;-22
2021/04/14 05:41:43;;;;;;;12.18;7.18;;;;;;;10.88;73.45;99824.72;5029421;28;20136;-22
2021/04/14 05:44:09;;;;;;;11.25;6.75;;;;;;;10.99;72.50;99810.63;5046797;28;20037;-22
2021/04/14 05:46:35;;;;;;;9.43;6.05;;;;;;;10.74;72.56;99805.41;5047255;28;20036;-21
2021/04/14 05:49:00;;;;;;;9.13;5.05;;;;;;;11.04;74.63;99831.28;5047074;28;20041;-20
2021/04/14 05:51:30;;;;;;;8.23;4.55;;;;;;;11.52;71.13;99830.31;5047223;28;20059;-22
2021/04/14 05:53:55;;;;;;;7.40;4.20;;;;;;;11.64;70.22;99819.66;5029301;28;20024;-22
2021/04/14 05:56:21;;;;;;;12.18;6.80;;;;;;;11.61;71.92;99820.94;5047106;28;20029;-20
2021/04/14 05:58:46;;;;;;;6.90;4.20;;;;;;;11.11;71.71;99804.50;5047064;28;20033;-22
2021/04/14 06:01:13;;;;;;;11.73;6.72;;;;;;;10.97;72.16;99814.53;5047123;28;20481;-23
2021/04/14 06:03:39;;;;;;;7.13;4.20;;;;;;;10.81;73.21;99822.16;5029105;28;20402;-22
2021/04/14 06:06:05;;;;;;;7.60;3.90;;;;;;;10.80;72.59;99827.72;5047086;28;20063;-22
2021/04/14 06:08:31;;;;;;;8.18;3.72;;;;;;;10.55;73.27;99807.31;5028804;28;20025;-22
2021/04/14 06:10:57;;;;;;;7.88;4.70;;;;;;;10.83;72.33;99806.75;5046744;28;20496;-20
2021/04/14 06:13:22;;;;;;;6.93;4.18;;;;;;;10.64;72.52;99821.16;5046897;28;20056;-22
2021/04/14 06:15:48;;;;;;;7.53;4.13;;;;;;;10.58;72.79;99806.06;5046731;28;20226;-22
2021/04/14 06:18:13;;;;;;;8.50;4.57;;;;;;;10.95;71.45;99805.94;5046294;28;20060;-22
2021/04/14 06:20:39;;;;;;;7.90;4.13;;;;;;;10.83;72.76;99820.09;5046785;28;20027;-22
2021/04/14 06:23:08;;;;;;;8.00;4.47;;;;;;;10.99;72.00;99812.47;5046471;28;20492;-22
2021/04/14 06:25:41;;;;;;;11.35;6.55;;;;;;;10.86;71.84;99814.28;5046484;28;20036;-22
2021/04/14 06:28:07;;;;;;;8.15;4.40;;;;;;;11.36;70.52;99814.97;5048023;28;20090;-22
2021/04/14 06:30:34;;;;;;;8.52;5.20;;;;;;;11.18;70.04;99811.38;5050309;28;20040;-21
2021/04/14 06:33:00;;;;;;;8.50;5.25;;;;;;;11.07;71.06;99828.16;5050055;28;20551;-21
2021/04/14 06:35:26;;;;;;;8.50;5.07;;;;;;;11.30;71.12;99813.22;5049600;28;20033;-22
2021/04/14 06:37:51;;;;;;;8.77;6.13;;;;;;;11.02;70.87;99801.34;5050374;28;20868;-22
2021/04/14 06:43:13;;;;;;;6.85;4.15;;;;;;;11.15;71.31;99822.47;5050402;28;20079;-22
2021/04/14 06:45:40;;;;;;;5.50;3.35;;;;;;;11.26;71.10;99811.03;5035180;28;20029;-22
2021/04/14 06:48:28;;;;;;;5.97;3.53;;;;;;;11.35;70.60;99798.16;5050434;28;20210;-22
2021/04/14 06:51:08;;;;;;;10.15;6.10;;;;;;;11.77;69.66;99813.25;5033341;28;20064;-22
2021/04/14 06:53:37;;;;;;;6.05;4.03;;;;;;;11.79;69.51;99812.00;5049848;28;20029;-22
2021/04/14 06:56:05;;;;;;;5.32;3.95;;;;;;;11.91;69.67;99819.22;5050029;28;20060;-22
2021/04/14 06:58:39;;;;;;;7.22;4.03;;;;;;;11.93;69.05;99817.13;5032261;28;20077;-22
2021/04/14 07:01:07;;;;;;;10.40;5.78;;;;;;;11.53;70.75;99788.44;5050078;28;20764;-21
2021/04/14 07:03:58;;;;;;;8.57;4.97;;;;;;;11.33;71.43;99786.88;5015746;28;20103;-21
2021/04/14 07:06:25;;;;;;;8.25;4.38;;;;;;;11.73;72.00;99801.41;5032677;28;20040;-22
2021/04/14 07:09:22;;;;;;;18.90;12.02;;;;;;;11.65;71.33;99810.63;5031941;28;20076;-22
2021/04/14 07:11:48;;;;;;;9.27;6.30;;;;;;;11.45;71.36;99785.03;5023563;28;20072;-22
2021/04/14 07:14:15;;;;;;;10.60;6.35;;;;;;;11.73;72.83;99809.44;5031669;28;20067;-22
2021/04/14 07:17:13;;;;;;;8.90;5.37;;;;;;;11.87;71.26;99816.19;5031703;28;20029;-23
2021/04/14 07:20:11;;;;;;;;;;;;;;;12.27;71.16;99823.47;5005584;28;20045;-21
2021/04/14 07:23:00;;;;;;;6.85;4.07;;;;;;;13.46;67.81;99828.09;5015826;28;19916;-22
2021/04/14 07:25:40;;;;;;;5.00;2.97;;;;;;;12.96;67.78;99830.69;5032018;28;20136;-22
2021/04/14 07:28:43;;;;;;;5.07;2.50;;;;;;;13.05;66.70;99819.34;5031788;28;20496;-22
2021/04/14 07:31:32;;;;;;;4.57;2.17;;;;;;;12.99;68.59;99809.59;5049227;28;20493;-22
2021/04/14 07:33:57;;;;;;;3.60;1.83;;;;;;;12.92;68.01;99840.25;5034089;28;20467;-22
2021/04/14 07:36:44;;;;;;;5.15;2.50;;;;;;;13.56;68.34;99837.34;5048955;28;20025;-22
2021/04/14 07:39:47;;;;;;;3.13;1.58;;;;;;;13.41;66.88;99832.56;5031153;28;20051;-22
2021/04/14 07:42:26;;;;;;;4.72;2.90;;;;;;;13.71;66.84;99829.56;5049001;28;20037;-22
2021/04/14 07:45:11;;;;;;;3.63;1.88;;;;;;;13.55;66.26;99827.69;5015310;28;20029;-21
2021/04/14 07:47:40;;;;;;;2.60;1.45;;;;;;;13.55;66.50;99828.50;5049135;28;20032;-22
2021/04/14 07:50:06;;;;;;;3.72;1.88;;;;;;;13.61;66.00;99827.53;5031310;28;20068;-21
2021/04/14 07:52:32;;;;;;;2.53;1.52;;;;;;;13.39;67.49;99813.25;5049212;28;20037;-22
2021/04/14 07:54:57;;;;;;;3.58;1.83;;;;;;;13.73;65.69;99805.16;5049296;28;20116;-22
2021/04/14 07:57:33;;;;;;;2.85;1.70;;;;;;;13.86;65.00;99829.75;5048289;28;20049;-22
2021/04/14 08:00:32;;;;;;;5.90;3.05;;;;;;;13.80;66.11;99824.59;5030881;28;20110;-22
2021/04/14 08:03:15;;;;;;;2.75;1.75;;;;;;;14.03;65.31;99813.63;5048618;28;20501;-22
2021/04/14 08:05:41;;;;;;;3.78;2.05;;;;;;;13.54;66.38;99800.06;5048788;28;20033;-21
2021/04/14 08:08:24;;;;;;;3.90;2.20;;;;;;;13.85;65.41;99796.00;5048349;28;20033;-21
2021/04/14 08:10:58;;;;;;;6.30;3.05;;;;;;;14.36;64.96;99811.91;5048567;28;20025;-22
2021/04/14 08:13:26;;;;;;;6.82;3.08;;;;;;;14.42;64.93;99784.06;5031413;28;20036;-21
2021/04/14 08:15:52;;;;;;;;;;;;;;;14.36;64.82;99822.63;5014981;28;20028;-22
2021/04/14 08:18:17;;;;;;;4.35;2.30;;;;;;;14.34;62.70;99818.59;5030211;28;19916;-23
2021/04/14 08:21:03;;;;;;;6.50;3.20;;;;;;;14.72;61.68;99792.75;5048391;28;20033;-22
2021/04/14 08:23:30;;;;;;;4.82;2.47;;;;;;;14.27;61.81;99762.47;5048326;28;20029;-22
2021/04/14 08:25:57;;;;;;;3.93;2.30;;;;;;;14.06;63.46;99789.03;5048398;28;20029;-22
2021/04/14 08:28:43;;;;;;;4.90;2.30;;;;;;;14.82;58.92;99782.13;5048255;28;20068;-22
2021/04/14 08:31:21;;;;;;;4.57;2.38;;;;;;;15.01;59.12;99802.16;5048194;28;20033;-22
2021/04/14 08:33:48;;;;;;;4.35;2.35;;;;;;;14.61;61.88;99778.44;5048147;28;20025;-22
2021/04/14 08:36:17;;;;;;;4.53;1.70;;;;;;;14.67;61.78;99790.84;5029777;28;20067;-22
2021/04/14 08:38:43;;;;;;;5.53;2.63;;;;;;;15.53;61.61;99797.19;5014380;28;20025;-22
2021/04/14 08:41:28;;;;;;;5.90;2.38;;;;;;;15.91;58.06;99780.00;5029929;28;20095;-22
2021/04/14 08:44:05;;;;;;;4.90;2.38;;;;;;;15.81;55.48;99782.63;5030106;28;20043;-21
2021/04/14 08:46:37;;;;;;;3.03;1.50;;;;;;;15.35;57.70;99771.56;5047864;28;20021;-22
2021/04/14 08:49:20;;;;;;;3.08;1.80;;;;;;;15.61;58.92;99781.44;5047767;28;20040;-22
2021/04/14 08:51:47;;;;;;;4.50;2.05;;;;;;;15.79;62.00;99779.41;5029233;28;20088;-21
2021/04/14 08:54:15;;;;;;;3.53;1.80;;;;;;;15.75;59.41;99778.28;5013010;28;20443;-22
2021/04/14 08:56:41;;;;;;;;;;;;;;;15.46;57.70;99782.09;5030241;28;20093;-22
2021/04/14 08:59:08;;;;;;;3.35;1.40;;;;;;;15.56;57.74;99769.81;5047648;28;19916;-22
2021/04/14 09:01:33;;;;;;;4.13;2.10;;;;;;;15.26;57.97;99788.16;5030132;28;20401;-22
2021/04/14 09:04:00;;;;;;;4.05;2.40;;;;;;;14.64;56.42;99772.53;5047566;28;20052;-22
2021/04/14 09:06:26;;;;;;;8.10;3.25;;;;;;;14.27;60.25;99795.44;5029564;28;20035;-21
2021/04/14 09:08:53;;;;;;;3.33;1.70;;;;;;;14.30;58.72;99796.81;5013199;28;20120;-20
2021/04/14 09:11:26;;;;;;;3.75;1.80;;;;;;;13.93;61.19;99792.06;5029713;28;20041;-20
2021/04/14 09:14:01;;;;;;;5.68;2.00;;;;;;;13.93;59.70;99799.28;5047446;28;20086;-21
2021/04/14 09:16:32;;;;;;;3.35;1.92;;;;;;;14.16;59.22;99801.75;5047318;28;20499;-20
2021/04/14 09:19:24;;;;;;;2.88;1.58;;;;;;;13.93;59.25;99796.63;5029608;28;20048;-22
2021/04/14 09:22:01;;;;;;;4.93;2.22;;;;;;;13.98;59.02;99773.38;5047234;28;20045;-22
2021/04/14 09:24:30;;;;;;;4.45;2.05;;;;;;;14.58;58.54;99770.88;5029466;28;20120;-22
2021/04/14 09:26:57;;;;;;;4.60;2.33;;;;;;;15.17;56.69;99757.44;5029516;28;20452;-21
2021/04/14 09:29:27;;;;;;;3.58;2.00;;;;;;;14.94;57.00;99763.19;5047530;28;20029;-22
2021/04/14 09:31:55;;;;;;;3.63;2.20;;;;;;;15.43;57.13;99739.66;5046934;28;20032;-22
2021/04/14 09:34:31;;;;;;;4.27;2.30;;;;;;;16.17;53.16;99753.22;5013142;28;20033;-22
2021/04/14 09:37:08;;;;;;;4.60;2.20;;;;;;;16.64;53.81;99747.69;5047106;28;20465;-22
2021/04/14 09:39:41;;;;;;;4.88;2.03;;;;;;;17.03;50.78;99730.25;5029344;28;20036;-22
2021/04/14 09:42:22;;;;;;;2.80;1.70;;;;;;;17.13;54.10;99738.34;5046912;28;20036;-21
2021/04/14 09:44:47;;;;;;;3.67;1.42;;;;;;;17.90;49.97;99735.53;5047185;28;20048;-21
2021/04/14 09:47:28;;;;;;;1.65;1.25;;;;;;;18.15;48.60;99741.91;5029439;28;20033;-22
2021/04/14 09:49:55;;;;;;;3.55;1.48;;;;;;;18.41;47.09;99729.91;5046697;28;20057;-21
2021/04/14 09:52:21;;;;;;;3.73;1.57;;;;;;;18.22;50.35;99727.00;5029246;28;20095;-21
2021/04/14 09:54:46;;;;;;;4.25;1.58;;;;;;;18.39;48.62;99732.06;5046935;28;20029;-21
2021/04/14 09:57:29;;;;;;;2.97;1.17;;;;;;;18.51;46.95;99728.19;5029100;28;20029;-22
2021/04/14 09:59:57;;;;;;;2.85;1.40;;;;;;;19.06;48.41;99701.88;5029369;28;20025;-22
2021/04/14 10:02:23;;;;;;;;;;;;;;;19.12;45.39;99727.78;5031977;28;20041;-21
2021/04/14 10:04:49;;;;;;;2.85;1.38;;;;;;;18.85;47.33;99693.94;5033146;28;19998;-21
2021/04/14 10:07:27;;;;;;;3.17;1.60;;;;;;;18.06;47.91;99720.06;5032891;28;20029;-21
2021/04/14 10:10:17;;;;;;;4.07;1.83;;;;;;;16.75;49.11;99697.34;5032986;28;20021;-21
2021/04/14 10:12:42;;;;;;;2.22;1.50;;;;;;;16.63;48.44;99707.56;5033079;28;20025;-22
2021/04/14 10:15:09;;;;;;;3.33;1.48;;;;;;;16.79;50.08;99711.91;5050513;28;20028;-21
2021/04/14 10:17:34;;;;;;;2.70;1.45;;;;;;;16.63;49.94;99713.78;5050527;28;20033;-22
2021/04/14 10:20:24;;;;;;;4.25;2.70;;;;;;;16.84;49.25;99713.84;5032879;28;20540;-21
2021/04/14 10:22:50;;;;;;;3.40;1.70;;;;;;;16.50;49.91;99713.50;5050787;28;20082;-22
2021/04/14 10:25:22;;;;;;;3.75;1.85;;;;;;;16.61;50.84;99704.34;5016381;28;20033;-22
2021/04/14 10:27:57;;;;;;;4.97;2.88;;;;;;;16.89;50.15;99684.19;5050531;28;20107;-22
2021/04/14 10:30:24;;;;;;;6.00;3.20;;;;;;;16.97;50.83;99704.41;5050629;28;20033;-22
2021/04/14 10:32:50;;;;;;;2.70;1.45;;;;;;;16.57;49.45;99681.72;5032936;28;20061;-21
2021/04/14 10:35:19;;;;;;;2.85;1.52;;;;;;;17.18;48.17;99695.25;5016156;28;20044;-22
2021/04/14 10:37:52;;;;;;;3.22;1.70;;;;;;;17.25;49.72;99679.59;5050224;28;20040;-20
2021/04/14 10:40:29;;;;;;;4.30;1.45;;;;;;;17.39;49.65;99698.69;5050260;28;20036;-21
2021/04/14 10:42:55;;;;;;;2.83;1.58;;;;;;;17.84;49.99;99698.88;5050197;28;20029;-21
2021/04/14 10:45:21;;;;;;;3.70;1.40;;;;;;;17.84;44.89;99685.38;5032566;28;20036;-20
2021/04/14 10:47:48;;;;;;;7.18;3.22;;;;;;;17.70;50.17;99692.41;5050163;28;20033;-21
2021/04/14 10:50:31;;;;;;;18.15;7.70;;;;;;;17.46;49.51;99699.22;5031896;28;20061;-21
2021/04/14 10:53:02;;;;;;;14.70;6.30;;;;;;;17.70;48.75;99695.13;5032227;28;20048;-22
2021/04/14 10:55:37;;;;;;;8.02;2.92;;;;;;;17.52;48.00;99685.72;5032978;28;20549;-21
2021/04/14 10:58:04;;;;;;;20.30;8.52;;;;;;;17.29;48.51;99711.41;5016659;28;20086;-20
2021/04/14 11:00:35;;;;;;;19.90;7.20;;;;;;;17.26;48.74;99705.47;5031991;28;20033;-25
2021/04/14 11:03:10;;;;;;;4.95;2.28;;;;;;;17.11;49.60;99710.84;5015677;28;20028;-23
2021/04/14 11:05:39;;;;;;;3.85;2.50;;;;;;;17.37;50.06;99692.78;5032334;28;20059;-21
2021/04/14 11:08:06;;;;;;;2.97;2.05;;;;;;;17.29;49.78;99676.38;5032442;28;20044;-21
2021/04/14 11:10:36;;;;;;;6.22;1.95;;;;;;;17.17;47.05;99685.53;5015970;28;20148;-21
2021/04/14 11:13:03;;;;;;;5.75;3.40;;;;;;;17.22;48.84;99699.00;5049066;28;20065;-21
2021/04/14 11:15:32;;;;;;;2.83;1.90;;;;;;;17.13;51.92;99686.34;5031791;28;20025;-21
2021/04/14 11:18:05;;;;;;;7.18;4.32;;;;;;;17.65;46.67;99668.97;5049652;28;20017;-21
2021/04/14 11:20:53;;;;;;;8.13;4.35;;;;;;;18.97;42.50;99681.97;5049594;28;20484;-21
2021/04/14 11:23:23;;;;;;;3.67;2.63;;;;;;;19.86;41.51;99692.44;5049587;28;20033;-21
2021/04/14 11:25:49;;;;;;;3.13;2.20;;;;;;;19.93;39.92;99687.47;5049271;28;20067;-21
2021/04/14 11:28:19;;;;;;;3.58;1.80;;;;;;;20.07;39.54;99688.34;5049089;28;20021;-21
2021/04/14 11:30:52;;;;;;;4.25;1.98;;;;;;;20.15;37.29;99689.63;5049214;28;20033;-20
2021/04/14 11:33:19;;;;;;;6.15;3.53;;;;;;;19.93;38.37;99670.44;5049483;28;20061;-21
2021/04/14 11:35:52;;;;;;;3.97;2.03;;;;;;;19.15;41.58;99686.69;5015286;28;20108;-20